Atlanta, GA (30379)

10:37 AM EDT on July 27, 2016 (GMT -0400)
Midtown | | Change Station

Elev 951 ft 33.78 °N, 84.38 °W | Updated 9 minutes ago

Overcast
Overcast
80.2 °F
Feels Like 84 °F
N
1.2
Wind Variable Wind from SW

Today
High -- | Low -- °F
--% Chance of Precip.
Yesterday
High -- | Low -- °F
Precip. -- in
Pressure 30.06 in
Visibility 10.0 miles
Clouds Overcast 2100 ft
Heat Index 84 °F
Dew Point 70 °F
Humidity 75%
Rainfall Not available.
Snow Depth Not available.
6:46 AM 8:41 PM
Last Quarter, 42% visible
METAR KFTY 271353Z 24003KT 10SM OVC021 26/21 A3009 RMK AO2 SLP178 T02560211
Pressure 30.06 in
Visibility 10.0 miles
Clouds Overcast 2100 ft
Heat Index 84 °F
Dew Point 70 °F
Humidity 75%
Rainfall Not available.
Snow Depth Not available.
6:46 AM 8:41 PM
Last Quarter, 42% visible
METAR KFTY 271353Z 24003KT 10SM OVC021 26/21 A3009 RMK AO2 SLP178 T02560211

10-Day Weather Forecast

Almanac

Astronomy

Jul. 27, 2016 Rise Set
Actual Time
Civil Twilight
Nautical Twilight
Astronomical Twilight
Moon
Length of Visible Light
Length of Day
Tomorrow will be .
, % of the Moon is Illuminated

Today's Extremes

State Highs State Lows

Community

WunderPhotos

Upload Photos

1,927,847 photos uploaded!

WunderBlog® & News

Nearby

Air Quality

  Air Quality AQ Index Pollutant
Not available.

Snow Depth

Station Depth Elevation

Earthquake Activity

City Distance Mag. Time & Date
Minimum magnitude displayed is 2.5.

Coastal Water Temperatures

Place Temperature

Stations

Nearby Weather Stations

Station Location Temp. Windchill Dew Point Humidity Wind Precip. Elev Updated Type
                   

Watches & Warnings

There are currently no watches in effect.